sensor_id;sensor_type;location;lat;lon;timestamp;pressure;altitude;pressure_sealevel;temperature;humidity
37200;BME280;23096;50.892;16.746;2024-03-08T00:01:30;99989.91;;;2.37;70.22
37200;BME280;23096;50.892;16.746;2024-03-08T00:03:56;99990.23;;;2.36;70.16
37200;BME280;23096;50.892;16.746;2024-03-08T00:06:22;99986.31;;;2.35;70.15
37200;BME280;23096;50.892;16.746;2024-03-08T00:08:47;99991.39;;;2.35;70.13
37200;BME280;23096;50.892;16.746;2024-03-08T00:11:13;99990.34;;;2.31;70.20
37200;BME280;23096;50.892;16.746;2024-03-08T00:13:38;99987.76;;;2.28;70.25
37200;BME280;23096;50.892;16.746;2024-03-08T00:16:04;99984.30;;;2.23;70.14
37200;BME280;23096;50.892;16.746;2024-03-08T00:18:29;99986.23;;;2.17;70.16
37200;BME280;23096;50.892;16.746;2024-03-08T00:20:55;99983.11;;;2.11;70.09
37200;BME280;23096;50.892;16.746;2024-03-08T00:23:21;99982.42;;;2.10;70.24
37200;BME280;23096;50.892;16.746;2024-03-08T00:25:46;99980.55;;;2.09;70.32
37200;BME280;23096;50.892;16.746;2024-03-08T00:28:12;99977.45;;;2.06;70.24
37200;BME280;23096;50.892;16.746;2024-03-08T00:30:40;99978.60;;;2.04;70.29
37200;BME280;23096;50.892;16.746;2024-03-08T00:33:05;99976.02;;;2.01;70.35
37200;BME280;23096;50.892;16.746;2024-03-08T00:35:31;99974.96;;;1.97;70.24
37200;BME280;23096;50.892;16.746;2024-03-08T00:37:56;99973.36;;;1.94;70.17
37200;BME280;23096;50.892;16.746;2024-03-08T00:40:22;99971.46;;;1.90;70.27
37200;BME280;23096;50.892;16.746;2024-03-08T00:42:48;99971.26;;;1.88;70.27
37200;BME280;23096;50.892;16.746;2024-03-08T00:45:13;99966.83;;;1.86;70.29
37200;BME280;23096;50.892;16.746;2024-03-08T00:47:39;99962.38;;;1.84;70.30
37200;BME280;23096;50.892;16.746;2024-03-08T00:50:05;99963.86;;;1.81;70.36
37200;BME280;23096;50.892;16.746;2024-03-08T00:52:30;99963.15;;;1.79;70.27
37200;BME280;23096;50.892;16.746;2024-03-08T00:54:56;99960.89;;;1.76;70.30
37200;BME280;23096;50.892;16.746;2024-03-08T00:57:21;99961.88;;;1.72;70.22
37200;BME280;23096;50.892;16.746;2024-03-08T00:59:47;99956.27;;;1.71;70.44
37200;BME280;23096;50.892;16.746;2024-03-08T01:02:13;99955.23;;;1.70;70.50
37200;BME280;23096;50.892;16.746;2024-03-08T01:04:39;99953.53;;;1.69;70.42
37200;BME280;23096;50.892;16.746;2024-03-08T01:07:04;99950.80;;;1.68;70.42
37200;BME280;23096;50.892;16.746;2024-03-08T01:09:30;99951.60;;;1.65;70.37
37200;BME280;23096;50.892;16.746;2024-03-08T01:11:57;99949.62;;;1.59;70.25
37200;BME280;23096;50.892;16.746;2024-03-08T01:14:23;99944.94;;;1.51;70.29
37200;BME280;23096;50.892;16.746;2024-03-08T01:16:50;99945.34;;;1.44;70.31
37200;BME280;23096;50.892;16.746;2024-03-08T01:19:16;99943.59;;;1.40;70.18
37200;BME280;23096;50.892;16.746;2024-03-08T01:21:43;99944.91;;;1.29;70.06
37200;BME280;23096;50.892;16.746;2024-03-08T01:24:08;99943.98;;;1.23;70.28
37200;BME280;23096;50.892;16.746;2024-03-08T01:26:34;99940.93;;;1.23;70.41
37200;BME280;23096;50.892;16.746;2024-03-08T01:29:00;99939.09;;;1.24;70.43
37200;BME280;23096;50.892;16.746;2024-03-08T01:31:31;99936.23;;;1.25;70.50
37200;BME280;23096;50.892;16.746;2024-03-08T01:33:57;99932.34;;;1.25;70.57
37200;BME280;23096;50.892;16.746;2024-03-08T01:36:23;99927.92;;;1.25;70.55
37200;BME280;23096;50.892;16.746;2024-03-08T01:38:50;99931.13;;;1.24;70.56
37200;BME280;23096;50.892;16.746;2024-03-08T01:41:16;99931.79;;;1.23;70.47
37200;BME280;23096;50.892;16.746;2024-03-08T01:43:43;99928.42;;;1.24;70.60
37200;BME280;23096;50.892;16.746;2024-03-08T01:46:09;99926.05;;;1.25;70.70
37200;BME280;23096;50.892;16.746;2024-03-08T01:48:36;99919.96;;;1.24;70.65
37200;BME280;23096;50.892;16.746;2024-03-08T01:51:02;99922.86;;;1.25;70.74
37200;BME280;23096;50.892;16.746;2024-03-08T01:53:28;99923.89;;;1.27;70.86
37200;BME280;23096;50.892;16.746;2024-03-08T01:55:57;99917.27;;;1.26;70.69
37200;BME280;23096;50.892;16.746;2024-03-08T01:58:23;99915.74;;;1.25;70.75
37200;BME280;23096;50.892;16.746;2024-03-08T02:00:54;99915.23;;;1.24;70.72
37200;BME280;23096;50.892;16.746;2024-03-08T02:03:19;99911.63;;;1.23;70.88
37200;BME280;23096;50.892;16.746;2024-03-08T02:05:45;99910.62;;;1.22;70.64
37200;BME280;23096;50.892;16.746;2024-03-08T02:08:11;99909.56;;;1.20;70.66
37200;BME280;23096;50.892;16.746;2024-03-08T02:10:41;99910.55;;;1.19;70.81
37200;BME280;23096;50.892;16.746;2024-03-08T02:13:09;99911.04;;;1.17;70.77
37200;BME280;23096;50.892;16.746;2024-03-08T02:15:54;99909.48;;;1.15;70.79
37200;BME280;23096;50.892;16.746;2024-03-08T02:18:20;99913.16;;;1.12;70.80
37200;BME280;23096;50.892;16.746;2024-03-08T02:20:50;99910.88;;;1.08;70.78
37200;BME280;23096;50.892;16.746;2024-03-08T02:23:16;99907.29;;;1.06;70.85
37200;BME280;23096;50.892;16.746;2024-03-08T02:25:42;99904.09;;;1.06;70.92
37200;BME280;23096;50.892;16.746;2024-03-08T02:28:11;99902.56;;;1.06;70.96
37200;BME280;23096;50.892;16.746;2024-03-08T02:30:37;99901.89;;;1.06;70.92
37200;BME280;23096;50.892;16.746;2024-03-08T02:33:04;99903.06;;;1.05;70.96
37200;BME280;23096;50.892;16.746;2024-03-08T02:35:30;99901.16;;;1.04;70.98
37200;BME280;23096;50.892;16.746;2024-03-08T02:37:55;99899.29;;;1.02;70.98
37200;BME280;23096;50.892;16.746;2024-03-08T02:40:21;99901.15;;;1.02;70.94
37200;BME280;23096;50.892;16.746;2024-03-08T02:42:47;99900.13;;;1.02;71.10
37200;BME280;23096;50.892;16.746;2024-03-08T02:45:13;99897.42;;;1.02;70.99
37200;BME280;23096;50.892;16.746;2024-03-08T02:47:39;99896.05;;;1.02;71.01
37200;BME280;23096;50.892;16.746;2024-03-08T02:50:05;99898.38;;;0.99;71.08
37200;BME280;23096;50.892;16.746;2024-03-08T02:52:36;99900.36;;;0.96;71.08
37200;BME280;23096;50.892;16.746;2024-03-08T02:55:02;99898.64;;;0.94;71.02
37200;BME280;23096;50.892;16.746;2024-03-08T02:57:28;99894.90;;;0.93;71.07
37200;BME280;23096;50.892;16.746;2024-03-08T02:59:54;99890.98;;;0.91;70.99
37200;BME280;23096;50.892;16.746;2024-03-08T03:02:19;99887.38;;;0.89;70.95
37200;BME280;23096;50.892;16.746;2024-03-08T03:04:45;99887.17;;;0.88;70.92
37200;BME280;23096;50.892;16.746;2024-03-08T03:07:10;99885.63;;;0.86;71.16
37200;BME280;23096;50.892;16.746;2024-03-08T03:09:36;99888.02;;;0.87;70.99
37200;BME280;23096;50.892;16.746;2024-03-08T03:12:02;99887.02;;;0.87;71.07
37200;BME280;23096;50.892;16.746;2024-03-08T03:14:28;99889.20;;;0.87;71.03
37200;BME280;23096;50.892;16.746;2024-03-08T03:16:53;99888.17;;;0.86;71.10
37200;BME280;23096;50.892;16.746;2024-03-08T03:19:20;99885.97;;;0.86;71.20
37200;BME280;23096;50.892;16.746;2024-03-08T03:21:46;99886.11;;;0.84;71.03
37200;BME280;23096;50.892;16.746;2024-03-08T03:24:11;99885.09;;;0.84;71.17
37200;BME280;23096;50.892;16.746;2024-03-08T03:26:38;99885.55;;;0.81;71.19
37200;BME280;23096;50.892;16.746;2024-03-08T03:29:07;99886.90;;;0.81;71.18
37200;BME280;23096;50.892;16.746;2024-03-08T03:31:34;99887.06;;;0.80;71.28
37200;BME280;23096;50.892;16.746;2024-03-08T03:34:01;99886.22;;;0.80;71.23
37200;BME280;23096;50.892;16.746;2024-03-08T03:36:31;99880.79;;;0.80;71.43
37200;BME280;23096;50.892;16.746;2024-03-08T03:38:57;99883.80;;;0.79;71.30
37200;BME280;23096;50.892;16.746;2024-03-08T03:41:31;99886.66;;;0.77;71.46
37200;BME280;23096;50.892;16.746;2024-03-08T03:43:56;99888.95;;;0.73;71.20
37200;BME280;23096;50.892;16.746;2024-03-08T03:46:22;99886.29;;;0.66;71.09
37200;BME280;23096;50.892;16.746;2024-03-08T03:48:47;99886.20;;;0.61;71.18
37200;BME280;23096;50.892;16.746;2024-03-08T03:51:13;99882.77;;;0.59;71.20
37200;BME280;23096;50.892;16.746;2024-03-08T03:53:40;99882.84;;;0.53;71.07
37200;BME280;23096;50.892;16.746;2024-03-08T03:56:06;99887.77;;;0.46;71.08
37200;BME280;23096;50.892;16.746;2024-03-08T03:58:33;99885.31;;;0.42;71.17
37200;BME280;23096;50.892;16.746;2024-03-08T04:00:58;99882.17;;;0.36;71.05
37200;BME280;23096;50.892;16.746;2024-03-08T04:03:24;99884.44;;;0.31;71.14
37200;BME280;23096;50.892;16.746;2024-03-08T04:05:49;99883.07;;;0.30;71.27
37200;BME280;23096;50.892;16.746;2024-03-08T04:08:16;99878.02;;;0.31;71.46
37200;BME280;23096;50.892;16.746;2024-03-08T04:10:42;99876.25;;;0.27;71.36
37200;BME280;23096;50.892;16.746;2024-03-08T04:13:08;99877.56;;;0.25;71.35
37200;BME280;23096;50.892;16.746;2024-03-08T04:15:35;99876.09;;;0.27;71.42
37200;BME280;23096;50.892;16.746;2024-03-08T04:18:00;99874.02;;;0.25;71.39
37200;BME280;23096;50.892;16.746;2024-03-08T04:20:26;99875.38;;;0.25;71.38
37200;BME280;23096;50.892;16.746;2024-03-08T04:22:51;99873.05;;;0.27;71.61
37200;BME280;23096;50.892;16.746;2024-03-08T04:25:17;99875.46;;;0.29;71.62
37200;BME280;23096;50.892;16.746;2024-03-08T04:27:43;99876.34;;;0.31;71.57
37200;BME280;23096;50.892;16.746;2024-03-08T04:30:10;99876.31;;;0.31;71.59
37200;BME280;23096;50.892;16.746;2024-03-08T04:32:35;99878.17;;;0.30;71.58
37200;BME280;23096;50.892;16.746;2024-03-08T04:35:01;99877.50;;;0.30;71.47
37200;BME280;23096;50.892;16.746;2024-03-08T04:37:27;99877.48;;;0.28;71.54
37200;BME280;23096;50.892;16.746;2024-03-08T04:39:55;99876.45;;;0.28;71.68
37200;BME280;23096;50.892;16.746;2024-03-08T04:42:21;99873.06;;;0.28;71.71
37200;BME280;23096;50.892;16.746;2024-03-08T04:44:46;99871.33;;;0.25;71.47
37200;BME280;23096;50.892;16.746;2024-03-08T04:47:12;99870.56;;;0.21;71.62
37200;BME280;23096;50.892;16.746;2024-03-08T04:49:38;99869.36;;;0.20;71.62
37200;BME280;23096;50.892;16.746;2024-03-08T04:52:04;99868.41;;;0.23;71.75
37200;BME280;23096;50.892;16.746;2024-03-08T04:54:30;99870.77;;;0.23;71.66
37200;BME280;23096;50.892;16.746;2024-03-08T04:56:56;99867.90;;;0.23;71.69
37200;BME280;23096;50.892;16.746;2024-03-08T04:59:22;99864.66;;;0.21;71.53
37200;BME280;23096;50.892;16.746;2024-03-08T05:01:47;99863.47;;;0.22;71.82
37200;BME280;23096;50.892;16.746;2024-03-08T05:04:13;99867.69;;;0.21;71.80
37200;BME280;23096;50.892;16.746;2024-03-08T05:06:39;99871.70;;;0.19;71.66
37200;BME280;23096;50.892;16.746;2024-03-08T05:09:04;99865.23;;;0.17;71.55
37200;BME280;23096;50.892;16.746;2024-03-08T05:11:43;99872.77;;;0.13;71.62
37200;BME280;23096;50.892;16.746;2024-03-08T05:14:12;99874.36;;;0.09;71.56
37200;BME280;23096;50.892;16.746;2024-03-08T05:16:44;99875.30;;;0.05;71.78
37200;BME280;23096;50.892;16.746;2024-03-08T05:19:20;99874.48;;;0.06;71.66
37200;BME280;23096;50.892;16.746;2024-03-08T05:21:49;99873.64;;;0.06;71.67
37200;BME280;23096;50.892;16.746;2024-03-08T05:24:15;99870.44;;;0.07;71.56
37200;BME280;23096;50.892;16.746;2024-03-08T05:26:41;99869.42;;;0.07;71.75
37200;BME280;23096;50.892;16.746;2024-03-08T05:29:07;99872.13;;;0.07;71.73
37200;BME280;23096;50.892;16.746;2024-03-08T05:31:48;99873.43;;;0.05;71.72
37200;BME280;23096;50.892;16.746;2024-03-08T05:34:15;99872.17;;;0.01;71.78
37200;BME280;23096;50.892;16.746;2024-03-08T05:36:41;99873.52;;;0.00;71.90
37200;BME280;23096;50.892;16.746;2024-03-08T05:39:12;99871.45;;;-0.02;71.71
37200;BME280;23096;50.892;16.746;2024-03-08T05:41:38;99872.75;;;-0.04;71.92
37200;BME280;23096;50.892;16.746;2024-03-08T05:44:07;99873.30;;;-0.03;71.91
37200;BME280;23096;50.892;16.746;2024-03-08T05:46:34;99872.83;;;-0.01;71.97
37200;BME280;23096;50.892;16.746;2024-03-08T05:49:00;99873.70;;;0.01;71.96
37200;BME280;23096;50.892;16.746;2024-03-08T05:51:25;99874.08;;;0.03;71.95
37200;BME280;23096;50.892;16.746;2024-03-08T05:53:54;99875.46;;;0.04;72.05
37200;BME280;23096;50.892;16.746;2024-03-08T05:56:22;99877.46;;;0.03;71.84
37200;BME280;23096;50.892;16.746;2024-03-08T05:58:50;99878.18;;;-0.03;71.78
37200;BME280;23096;50.892;16.746;2024-03-08T06:01:16;99877.23;;;-0.08;71.84
37200;BME280;23096;50.892;16.746;2024-03-08T06:03:41;99877.48;;;-0.12;71.84
37200;BME280;23096;50.892;16.746;2024-03-08T06:06:14;99876.92;;;-0.15;71.79
37200;BME280;23096;50.892;16.746;2024-03-08T06:08:40;99882.27;;;-0.18;71.88
37200;BME280;23096;50.892;16.746;2024-03-08T06:11:05;99879.61;;;-0.23;71.80
37200;BME280;23096;50.892;16.746;2024-03-08T06:13:34;99878.02;;;-0.26;71.79
37200;BME280;23096;50.892;16.746;2024-03-08T06:16:00;99883.45;;;-0.32;71.81
37200;BME280;23096;50.892;16.746;2024-03-08T06:18:33;99887.56;;;-0.38;71.85
37200;BME280;23096;50.892;16.746;2024-03-08T06:20:59;99888.31;;;-0.42;71.86
37200;BME280;23096;50.892;16.746;2024-03-08T06:23:24;99887.57;;;-0.45;71.85
37200;BME280;23096;50.892;16.746;2024-03-08T06:25:50;99888.63;;;-0.50;71.96
37200;BME280;23096;50.892;16.746;2024-03-08T06:28:15;99887.58;;;-0.52;72.06
37200;BME280;23096;50.892;16.746;2024-03-08T06:30:42;99884.27;;;-0.48;72.20
37200;BME280;23096;50.892;16.746;2024-03-08T06:33:08;99884.73;;;-0.44;72.32
37200;BME280;23096;50.892;16.746;2024-03-08T06:35:33;99880.73;;;-0.41;72.28
37200;BME280;23096;50.892;16.746;2024-03-08T06:38:00;99884.10;;;-0.41;72.19
37200;BME280;23096;50.892;16.746;2024-03-08T06:40:25;99885.77;;;-0.43;72.12
37200;BME280;23096;50.892;16.746;2024-03-08T06:42:51;99882.66;;;-0.38;72.42
37200;BME280;23096;50.892;16.746;2024-03-08T06:45:17;99885.48;;;-0.33;72.63
37200;BME280;23096;50.892;16.746;2024-03-08T06:47:46;99883.73;;;-0.28;72.57
37200;BME280;23096;50.892;16.746;2024-03-08T06:50:12;99879.88;;;-0.26;72.52
37200;BME280;23096;50.892;16.746;2024-03-08T06:52:38;99880.23;;;-0.26;72.42
37200;BME280;23096;50.892;16.746;2024-03-08T06:55:04;99879.52;;;-0.27;72.49
37200;BME280;23096;50.892;16.746;2024-03-08T06:57:31;99879.51;;;-0.28;72.62
37200;BME280;23096;50.892;16.746;2024-03-08T06:59:57;99876.63;;;-0.28;72.65
37200;BME280;23096;50.892;16.746;2024-03-08T07:02:23;99875.11;;;-0.28;72.67
37200;BME280;23096;50.892;16.746;2024-03-08T07:04:51;99880.35;;;-0.28;72.61
37200;BME280;23096;50.892;16.746;2024-03-08T07:07:18;99880.44;;;-0.24;72.79
37200;BME280;23096;50.892;16.746;2024-03-08T07:09:46;99880.98;;;-0.23;72.72
37200;BME280;23096;50.892;16.746;2024-03-08T07:12:11;99872.20;;;-0.23;72.63
37200;BME280;23096;50.892;16.746;2024-03-08T07:14:38;99871.13;;;-0.18;72.85
37200;BME280;23096;50.892;16.746;2024-03-08T07:17:07;99877.61;;;-0.14;72.87
37200;BME280;23096;50.892;16.746;2024-03-08T07:19:34;99877.48;;;-0.12;72.86
37200;BME280;23096;50.892;16.746;2024-03-08T07:22:00;99878.24;;;-0.08;72.87
37200;BME280;23096;50.892;16.746;2024-03-08T07:24:25;99876.46;;;-0.05;72.90
37200;BME280;23096;50.892;16.746;2024-03-08T07:27:10;99880.05;;;-0.03;72.96
37200;BME280;23096;50.892;16.746;2024-03-08T07:29:35;99877.90;;;-0.01;72.95
37200;BME280;23096;50.892;16.746;2024-03-08T07:32:01;99877.12;;;0.02;73.03
37200;BME280;23096;50.892;16.746;2024-03-08T07:34:45;99879.82;;;0.04;73.06
37200;BME280;23096;50.892;16.746;2024-03-08T07:37:10;99878.66;;;0.04;73.09
37200;BME280;23096;50.892;16.746;2024-03-08T07:39:37;99874.42;;;0.03;73.18
37200;BME280;23096;50.892;16.746;2024-03-08T07:42:04;99873.27;;;0.04;73.23
37200;BME280;23096;50.892;16.746;2024-03-08T07:44:29;99873.80;;;0.06;73.15
37200;BME280;23096;50.892;16.746;2024-03-08T07:46:56;99872.63;;;0.06;73.13
37200;BME280;23096;50.892;16.746;2024-03-08T07:49:21;99871.30;;;0.07;73.16
37200;BME280;23096;50.892;16.746;2024-03-08T07:51:47;99873.83;;;0.07;73.20
37200;BME280;23096;50.892;16.746;2024-03-08T07:54:14;99874.77;;;0.12;73.39
37200;BME280;23096;50.892;16.746;2024-03-08T07:56:40;99869.14;;;0.17;73.29
37200;BME280;23096;50.892;16.746;2024-03-08T07:59:05;99865.96;;;0.19;73.32
37200;BME280;23096;50.892;16.746;2024-03-08T08:01:31;99865.45;;;0.19;73.36
37200;BME280;23096;50.892;16.746;2024-03-08T08:03:59;99866.49;;;0.21;73.51
37200;BME280;23096;50.892;16.746;2024-03-08T08:06:27;99860.82;;;0.24;73.57
37200;BME280;23096;50.892;16.746;2024-03-08T08:08:52;99859.25;;;0.30;73.64
37200;BME280;23096;50.892;16.746;2024-03-08T08:11:18;99854.62;;;0.35;73.55
37200;BME280;23096;50.892;16.746;2024-03-08T08:13:45;99854.23;;;0.42;73.51
37200;BME280;23096;50.892;16.746;2024-03-08T08:16:11;99855.88;;;0.49;73.83
37200;BME280;23096;50.892;16.746;2024-03-08T08:18:38;99853.12;;;0.55;73.86
37200;BME280;23096;50.892;16.746;2024-03-08T08:21:04;99850.71;;;0.62;73.91
37200;BME280;23096;50.892;16.746;2024-03-08T08:23:32;99851.52;;;0.69;73.85
37200;BME280;23096;50.892;16.746;2024-03-08T08:25:58;99854.02;;;0.77;74.01
37200;BME280;23096;50.892;16.746;2024-03-08T08:28:23;99851.98;;;0.87;74.18
37200;BME280;23096;50.892;16.746;2024-03-08T08:30:51;99852.78;;;0.94;74.11
37200;BME280;23096;50.892;16.746;2024-03-08T08:33:19;99851.90;;;1.02;74.13
37200;BME280;23096;50.892;16.746;2024-03-08T08:35:44;99853.50;;;1.07;74.17
37200;BME280;23096;50.892;16.746;2024-03-08T08:38:10;99850.86;;;1.10;74.27
37200;BME280;23096;50.892;16.746;2024-03-08T08:40:36;99848.90;;;1.15;74.20
37200;BME280;23096;50.892;16.746;2024-03-08T08:43:02;99850.64;;;1.19;74.23
37200;BME280;23096;50.892;16.746;2024-03-08T08:45:32;99850.20;;;1.23;74.21
37200;BME280;23096;50.892;16.746;2024-03-08T08:47:59;99846.55;;;1.27;74.22
37200;BME280;23096;50.892;16.746;2024-03-08T08:50:25;99845.79;;;1.33;74.18
37200;BME280;23096;50.892;16.746;2024-03-08T08:52:54;99847.05;;;1.39;74.46
37200;BME280;23096;50.892;16.746;2024-03-08T08:55:19;99846.63;;;1.44;74.34
37200;BME280;23096;50.892;16.746;2024-03-08T08:57:52;99842.48;;;1.51;74.48
37200;BME280;23096;50.892;16.746;2024-03-08T09:00:20;99842.27;;;1.59;74.42
37200;BME280;23096;50.892;16.746;2024-03-08T09:02:47;99841.84;;;1.65;74.58
37200;BME280;23096;50.892;16.746;2024-03-08T09:05:16;99840.23;;;1.72;74.54
37200;BME280;23096;50.892;16.746;2024-03-08T09:07:44;99838.45;;;1.77;74.57
37200;BME280;23096;50.892;16.746;2024-03-08T09:10:10;99834.96;;;1.82;74.58
37200;BME280;23096;50.892;16.746;2024-03-08T09:12:38;99833.14;;;1.86;74.55
37200;BME280;23096;50.892;16.746;2024-03-08T09:15:05;99832.52;;;1.90;74.61
37200;BME280;23096;50.892;16.746;2024-03-08T09:17:37;99837.55;;;1.99;74.81
37200;BME280;23096;50.892;16.746;2024-03-08T09:20:09;99835.64;;;2.09;74.62
37200;BME280;23096;50.892;16.746;2024-03-08T09:22:35;99832.17;;;2.18;74.74
37200;BME280;23096;50.892;16.746;2024-03-08T09:25:01;99832.59;;;2.25;74.79
37200;BME280;23096;50.892;16.746;2024-03-08T09:27:27;99837.11;;;2.35;74.81
37200;BME280;23096;50.892;16.746;2024-03-08T09:29:54;99836.49;;;2.42;74.80
37200;BME280;23096;50.892;16.746;2024-03-08T09:32:20;99830.41;;;2.43;74.62
37200;BME280;23096;50.892;16.746;2024-03-08T09:34:45;99827.24;;;2.48;74.85
37200;BME280;23096;50.892;16.746;2024-03-08T09:37:11;99830.02;;;2.55;74.85
37200;BME280;23096;50.892;16.746;2024-03-08T09:39:36;99828.70;;;2.59;74.75
37200;BME280;23096;50.892;16.746;2024-03-08T09:42:02;99827.07;;;2.65;74.92
37200;BME280;23096;50.892;16.746;2024-03-08T09:44:28;99823.23;;;2.73;74.98
37200;BME280;23096;50.892;16.746;2024-03-08T09:46:58;99824.84;;;2.81;74.98
37200;BME280;23096;50.892;16.746;2024-03-08T09:49:27;99825.08;;;2.89;75.04
37200;BME280;23096;50.892;16.746;2024-03-08T09:51:52;99822.92;;;2.95;74.87
37200;BME280;23096;50.892;16.746;2024-03-08T09:54:18;99824.65;;;2.99;74.85
37200;BME280;23096;50.892;16.746;2024-03-08T09:56:46;99823.16;;;3.04;74.78
37200;BME280;23096;50.892;16.746;2024-03-08T09:59:12;99819.95;;;3.08;74.71
37200;BME280;23096;50.892;16.746;2024-03-08T10:01:53;99817.45;;;3.11;74.72
37200;BME280;23096;50.892;16.746;2024-03-08T10:04:24;99812.04;;;3.15;74.86
37200;BME280;23096;50.892;16.746;2024-03-08T10:06:51;99811.41;;;3.21;74.85
37200;BME280;23096;50.892;16.746;2024-03-08T10:09:17;99809.75;;;3.30;74.96
37200;BME280;23096;50.892;16.746;2024-03-08T10:11:43;99809.79;;;3.36;74.85
37200;BME280;23096;50.892;16.746;2024-03-08T10:14:09;99806.45;;;3.44;74.91
37200;BME280;23096;50.892;16.746;2024-03-08T10:16:35;99803.95;;;3.52;74.83
37200;BME280;23096;50.892;16.746;2024-03-08T10:19:00;99803.46;;;3.58;74.80
37200;BME280;23096;50.892;16.746;2024-03-08T10:21:26;99800.77;;;3.60;74.71
37200;BME280;23096;50.892;16.746;2024-03-08T10:23:52;99799.44;;;3.63;74.72
37200;BME280;23096;50.892;16.746;2024-03-08T10:26:27;99794.02;;;3.68;74.79
37200;BME280;23096;50.892;16.746;2024-03-08T10:28:56;99796.79;;;3.81;74.92
37200;BME280;23096;50.892;16.746;2024-03-08T10:31:23;99799.05;;;3.91;74.81
37200;BME280;23096;50.892;16.746;2024-03-08T10:33:48;99796.36;;;3.99;74.88
37200;BME280;23096;50.892;16.746;2024-03-08T10:36:15;99797.90;;;4.08;74.83
37200;BME280;23096;50.892;16.746;2024-03-08T10:38:42;99800.13;;;4.13;74.50
37200;BME280;23096;50.892;16.746;2024-03-08T10:41:09;99795.55;;;4.14;74.45
37200;BME280;23096;50.892;16.746;2024-03-08T10:46:23;99789.11;;;4.21;74.55
37200;BME280;23096;50.892;16.746;2024-03-08T10:48:52;99790.80;;;4.17;74.31
37200;BME280;23096;50.892;16.746;2024-03-08T10:51:22;99791.13;;;4.16;74.21
37200;BME280;23096;50.892;16.746;2024-03-08T10:53:48;99787.08;;;4.19;74.21
37200;BME280;23096;50.892;16.746;2024-03-08T10:56:14;99788.10;;;4.26;74.29
37200;BME280;23096;50.892;16.746;2024-03-08T10:58:40;99789.98;;;4.31;74.10
37200;BME280;23096;50.892;16.746;2024-03-08T11:01:07;99786.91;;;4.32;74.07
37200;BME280;23096;50.892;16.746;2024-03-08T11:06:30;99771.63;;;4.33;73.91
37200;BME280;23096;50.892;16.746;2024-03-08T11:08:57;99768.56;;;4.36;73.97
37200;BME280;23096;50.892;16.746;2024-03-08T11:11:28;99763.80;;;4.44;74.01
37200;BME280;23096;50.892;16.746;2024-03-08T11:13:58;99765.35;;;4.59;74.09
37200;BME280;23096;50.892;16.746;2024-03-08T11:19:00;99759.23;;;4.75;73.95
37200;BME280;23096;50.892;16.746;2024-03-08T11:21:30;99754.64;;;4.82;73.90
37200;BME280;23096;50.892;16.746;2024-03-08T11:24:16;99754.98;;;4.94;73.87
37200;BME280;23096;50.892;16.746;2024-03-08T11:26:45;99748.48;;;5.06;73.85
37200;BME280;23096;50.892;16.746;2024-03-08T11:32:19;99747.45;;;5.15;73.51
37200;BME280;23096;50.892;16.746;2024-03-08T11:34:49;99744.22;;;5.12;73.34
37200;BME280;23096;50.892;16.746;2024-03-08T11:37:18;99741.33;;;5.09;73.28
37200;BME280;23096;50.892;16.746;2024-03-08T11:39:50;99735.36;;;5.11;73.33
37200;BME280;23096;50.892;16.746;2024-03-08T11:42:17;99731.77;;;5.21;73.34
37200;BME280;23096;50.892;16.746;2024-03-08T11:44:46;99726.80;;;5.32;73.39
37200;BME280;23096;50.892;16.746;2024-03-08T11:47:13;99728.30;;;5.41;73.31
37200;BME280;23096;50.892;16.746;2024-03-08T11:49:39;99725.55;;;5.49;73.27
37200;BME280;23096;50.892;16.746;2024-03-08T11:52:13;99721.27;;;5.55;73.14
37200;BME280;23096;50.892;16.746;2024-03-08T11:54:43;99716.80;;;5.63;73.16
37200;BME280;23096;50.892;16.746;2024-03-08T11:57:14;99708.76;;;5.72;73.02
37200;BME280;23096;50.892;16.746;2024-03-08T11:59:39;99708.71;;;5.82;72.88
37200;BME280;23096;50.892;16.746;2024-03-08T12:02:06;99704.94;;;5.86;72.74
37200;BME280;23096;50.892;16.746;2024-03-08T12:04:32;99702.85;;;5.95;72.81
37200;BME280;23096;50.892;16.746;2024-03-08T12:07:01;99700.45;;;6.00;72.64
37200;BME280;23096;50.892;16.746;2024-03-08T12:09:37;99699.60;;;6.00;72.41
37200;BME280;23096;50.892;16.746;2024-03-08T12:12:03;99695.50;;;6.02;72.36
37200;BME280;23096;50.892;16.746;2024-03-08T12:14:35;99690.87;;;6.07;72.34
37200;BME280;23096;50.892;16.746;2024-03-08T12:17:01;99689.27;;;6.15;72.36
37200;BME280;23096;50.892;16.746;2024-03-08T12:19:28;99690.58;;;6.23;72.34
37200;BME280;23096;50.892;16.746;2024-03-08T12:21:54;99687.13;;;6.30;72.20
37200;BME280;23096;50.892;16.746;2024-03-08T12:24:20;99691.34;;;6.37;72.05
37200;BME280;23096;50.892;16.746;2024-03-08T12:26:47;99686.89;;;6.39;71.90
37200;BME280;23096;50.892;16.746;2024-03-08T12:29:27;99682.77;;;6.40;71.82
37200;BME280;23096;50.892;16.746;2024-03-08T12:31:58;99677.95;;;6.45;71.84
37200;BME280;23096;50.892;16.746;2024-03-08T12:34:27;99677.75;;;6.49;71.65
37200;BME280;23096;50.892;16.746;2024-03-08T12:36:54;99674.35;;;6.48;71.43
37200;BME280;23096;50.892;16.746;2024-03-08T12:39:21;99670.95;;;6.47;71.38
37200;BME280;23096;50.892;16.746;2024-03-08T12:41:50;99672.14;;;6.47;71.35
37200;BME280;23096;50.892;16.746;2024-03-08T12:44:19;99673.14;;;6.50;71.30
37200;BME280;23096;50.892;16.746;2024-03-08T12:46:47;99669.35;;;6.54;71.16
37200;BME280;23096;50.892;16.746;2024-03-08T12:49:14;99662.86;;;6.56;70.97
37200;BME280;23096;50.892;16.746;2024-03-08T12:51:45;99661.09;;;6.62;71.12
37200;BME280;23096;50.892;16.746;2024-03-08T12:54:12;99657.48;;;6.64;70.88
37200;BME280;23096;50.892;16.746;2024-03-08T12:56:37;99651.31;;;6.66;70.93
37200;BME280;23096;50.892;16.746;2024-03-08T12:59:07;99650.94;;;6.70;70.82
37200;BME280;23096;50.892;16.746;2024-03-08T13:01:33;99643.23;;;6.74;70.69
37200;BME280;23096;50.892;16.746;2024-03-08T13:04:00;99639.27;;;6.77;70.57
37200;BME280;23096;50.892;16.746;2024-03-08T13:06:31;99640.80;;;6.77;70.46
37200;BME280;23096;50.892;16.746;2024-03-08T13:08:57;99640.25;;;6.80;70.41
37200;BME280;23096;50.892;16.746;2024-03-08T13:11:23;99642.11;;;6.83;70.40